Time;durP1;ratioP1;P1;durP2;ratioP2;P2;SDS_P1;SDS_P2;PMS_P1;PMS_P2;Temp;Humidity;BMP_temperature;BMP_pressure;BME280_temperature;BME280_humidity;BME280_pressure;Samples;Min_cycle;Max_cycle;Signal;HPM_P1;HPM_P2
2024/04/16 00:00:11;;;;;;;1.30;0.30;;;5.10;99.90;;;;;;5421230;26;20726;-69
2024/04/16 00:02:37;;;;;;;0.60;0.40;;;5.10;99.90;;;;;;5421884;26;20214;-70
2024/04/16 00:05:06;;;;;;;1.23;0.30;;;5.10;99.90;;;;;;5421360;26;20230;-69
2024/04/16 00:07:33;;;;;;;0.30;0.30;;;5.10;99.90;;;;;;5421781;26;20213;-69
2024/04/16 00:10:02;;;;;;;1.43;0.93;;;5.10;99.90;;;;;;5421571;26;20295;-70
2024/04/16 00:12:28;;;;;;;2.00;0.47;;;5.20;99.90;;;;;;5421796;26;20221;-69
2024/04/16 00:14:56;;;;;;;1.60;0.77;;;5.10;99.90;;;;;;5421834;26;20252;-70
2024/04/16 00:17:27;;;;;;;2.30;0.40;;;5.10;99.90;;;;;;5420232;26;20218;-73
2024/04/16 00:19:56;;;;;;;0.50;0.50;;;5.20;99.90;;;;;;5422134;26;20252;-69
2024/04/16 00:22:22;;;;;;;2.07;0.70;;;5.20;99.90;;;;;;5422030;26;20221;-69
2024/04/16 00:24:51;;;;;;;0.93;0.50;;;5.20;99.90;;;;;;5422162;26;20217;-70
2024/04/16 00:27:16;;;;;;;4.80;0.60;;;5.20;99.90;;;;;;5421633;26;20256;-70
2024/04/16 00:29:46;;;;;;;0.93;0.70;;;5.20;99.90;;;;;;5421672;26;20249;-73
2024/04/16 00:32:12;;;;;;;3.13;0.50;;;5.20;99.90;;;;;;5421653;26;20225;-71
2024/04/16 00:34:43;;;;;;;0.63;0.60;;;5.20;99.90;;;;;;5421029;26;20222;-69
2024/04/16 00:37:09;;;;;;;1.83;0.50;;;5.20;99.90;;;;;;5421635;26;20248;-69
2024/04/16 00:39:38;;;;;;;1.50;0.77;;;5.10;99.90;;;;;;5421932;26;20241;-69
2024/04/16 00:42:04;;;;;;;0.87;0.57;;;5.10;99.90;;;;;;5421921;26;20592;-69
2024/04/16 00:44:33;;;;;;;2.33;0.83;;;5.00;99.90;;;;;;5422034;26;20706;-69
2024/04/16 00:46:59;;;;;;;0.67;0.40;;;5.00;99.90;;;;;;5421685;26;20628;-69
2024/04/16 00:49:28;;;;;;;0.90;0.77;;;5.10;99.90;;;;;;5420306;26;20237;-69
2024/04/16 00:51:59;;;;;;;3.60;1.00;;;5.10;99.90;;;;;;5419510;26;20225;-69
2024/04/16 00:54:29;;;;;;;1.43;0.63;;;5.10;99.90;;;;;;5419425;26;20563;-69
2024/04/16 00:56:56;;;;;;;1.03;0.97;;;5.10;99.90;;;;;;5421163;26;20229;-69
2024/04/16 00:59:25;;;;;;;0.70;0.60;;;5.10;99.90;;;;;;5421154;26;20606;-69
2024/04/16 01:01:53;;;;;;;1.60;0.77;;;5.10;99.90;;;;;;5420666;26;20561;-70
2024/04/16 01:04:22;;;;;;;4.53;0.80;;;5.10;99.90;;;;;;5420316;26;20285;-70
2024/04/16 01:06:48;;;;;;;2.97;1.07;;;5.10;99.90;;;;;;5421050;26;20222;-69
2024/04/16 01:09:20;;;;;;;2.93;1.03;;;5.10;99.90;;;;;;5421138;26;20237;-70
2024/04/16 01:11:46;;;;;;;2.33;1.00;;;5.10;99.90;;;;;;5420914;26;20222;-70
2024/04/16 01:14:19;;;;;;;4.30;0.70;;;5.10;99.90;;;;;;5420140;26;20233;-70
2024/04/16 01:16:45;;;;;;;2.67;1.00;;;5.20;99.90;;;;;;5420931;26;20228;-70
2024/04/16 01:19:14;;;;;;;4.00;0.97;;;5.20;99.90;;;;;;5421404;26;20268;-69
2024/04/16 01:21:40;;;;;;;1.57;0.73;;;5.20;99.90;;;;;;5421626;26;20213;-70
2024/04/16 01:24:12;;;;;;;1.53;0.57;;;5.20;99.90;;;;;;5421509;26;20251;-70
2024/04/16 01:26:38;;;;;;;1.70;0.73;;;5.20;99.90;;;;;;5421909;26;20698;-70
2024/04/16 01:29:06;;;;;;;3.13;0.73;;;5.20;99.90;;;;;;5420723;26;20245;-69
2024/04/16 01:31:33;;;;;;;1.17;0.80;;;5.20;99.90;;;;;;5421187;26;20285;-69
2024/04/16 01:34:02;;;;;;;1.37;0.80;;;5.20;99.90;;;;;;5421224;26;20330;-70
2024/04/16 01:36:28;;;;;;;1.40;0.73;;;5.20;99.90;;;;;;5420963;26;20563;-69
2024/04/16 01:38:56;;;;;;;4.07;0.70;;;5.20;99.90;;;;;;5420461;26;20237;-70
2024/04/16 01:41:25;;;;;;;1.60;1.20;;;5.30;99.90;;;;;;5420732;26;20221;-70
2024/04/16 01:43:53;;;;;;;2.30;0.80;;;5.30;99.90;;;;;;5421137;26;20289;-70
2024/04/16 01:46:19;;;;;;;1.63;0.60;;;5.20;99.90;;;;;;5420842;26;20699;-69
2024/04/16 01:48:48;;;;;;;0.90;0.83;;;5.20;99.90;;;;;;5419995;26;20260;-70
2024/04/16 01:51:14;;;;;;;1.70;0.87;;;5.30;99.90;;;;;;5420032;26;20761;-70
2024/04/16 01:53:42;;;;;;;4.00;1.07;;;5.30;99.90;;;;;;5418896;26;20222;-70
2024/04/16 01:56:09;;;;;;;2.60;1.20;;;5.30;99.90;;;;;;5420362;26;20251;-69
2024/04/16 01:58:40;;;;;;;5.97;1.40;;;5.20;99.90;;;;;;5420677;26;20245;-69
2024/04/16 02:01:06;;;;;;;2.30;1.00;;;5.20;99.90;;;;;;5421245;26;20186;-69
2024/04/16 02:03:35;;;;;;;2.73;1.10;;;5.30;99.90;;;;;;5421002;26;20217;-69
2024/04/16 02:06:05;;;;;;;3.63;1.60;;;5.30;99.90;;;;;;5420508;26;20753;-70
2024/04/16 02:08:34;;;;;;;5.60;1.10;;;5.20;99.90;;;;;;5420643;26;20205;-68
2024/04/16 02:11:00;;;;;;;3.80;1.67;;;5.10;99.90;;;;;;5420705;26;20252;-70
2024/04/16 02:13:28;;;;;;;2.93;1.17;;;5.10;99.90;;;;;;5420272;26;20225;-69
2024/04/16 02:15:57;;;;;;;6.90;1.17;;;5.00;99.90;;;;;;5420709;26;20217;-69
2024/04/16 02:18:25;;;;;;;3.00;1.43;;;5.00;99.90;;;;;;5419073;26;20226;-68
2024/04/16 02:20:51;;;;;;;3.73;1.00;;;5.10;99.90;;;;;;5419069;26;20257;-69
2024/04/16 02:23:20;;;;;;;3.87;1.23;;;5.00;99.90;;;;;;5419194;26;20221;-69
2024/04/16 02:25:46;;;;;;;3.83;1.00;;;5.10;99.90;;;;;;5419926;26;20221;-69
2024/04/16 02:28:15;;;;;;;7.67;1.30;;;5.00;99.90;;;;;;5420245;26;20569;-70
2024/04/16 02:30:41;;;;;;;4.70;1.20;;;5.00;99.90;;;;;;5419223;26;20232;-70
2024/04/16 02:33:12;;;;;;;6.47;1.50;;;5.00;99.90;;;;;;5419421;26;20230;-70
2024/04/16 02:35:38;;;;;;;5.93;1.50;;;5.10;99.90;;;;;;5419649;26;20695;-70
2024/04/16 02:38:07;;;;;;;4.53;1.53;;;5.10;99.90;;;;;;5419758;26;20264;-69
2024/04/16 02:40:33;;;;;;;5.47;1.60;;;5.10;99.90;;;;;;5421183;26;20229;-69
2024/04/16 02:43:01;;;;;;;3.83;1.60;;;5.10;99.90;;;;;;5423587;26;20268;-69
2024/04/16 02:45:27;;;;;;;4.23;1.40;;;5.20;99.90;;;;;;5423969;26;20263;-69
2024/04/16 02:47:56;;;;;;;5.60;2.17;;;5.10;99.90;;;;;;5423442;26;20217;-68
2024/04/16 02:50:24;;;;;;;3.23;1.37;;;5.10;99.90;;;;;;5423220;26;20233;-68
2024/04/16 02:52:53;;;;;;;5.43;1.40;;;5.20;99.90;;;;;;5423172;26;20214;-69
2024/04/16 02:55:21;;;;;;;7.00;1.70;;;5.10;99.90;;;;;;5423016;26;20218;-69
2024/04/16 02:57:50;;;;;;;4.73;1.73;;;5.10;99.90;;;;;;5423235;26;20293;-69
2024/04/16 03:00:16;;;;;;;2.90;0.87;;;5.20;99.90;;;;;;5423314;26;20259;-68
2024/04/16 03:02:45;;;;;;;6.90;1.90;;;5.20;99.90;;;;;;5423247;26;20710;-68
2024/04/16 03:05:10;;;;;;;3.37;1.20;;;5.10;99.90;;;;;;5421882;26;20259;-70
2024/04/16 03:07:43;;;;;;;2.20;1.00;;;5.10;99.90;;;;;;5421968;26;20217;-69
2024/04/16 03:10:15;;;;;;;5.00;1.10;;;5.10;99.90;;;;;;5421397;26;20303;-69
2024/04/16 03:12:44;;;;;;;8.57;2.97;;;5.10;99.90;;;;;;5423435;26;20210;-70
2024/04/16 03:15:10;;;;;;;4.00;1.53;;;5.00;99.90;;;;;;5423083;26;20258;-70
2024/04/16 03:17:39;;;;;;;6.67;1.40;;;5.00;99.90;;;;;;5422912;26;20217;-70
2024/04/16 03:20:06;;;;;;;3.30;1.30;;;5.00;99.90;;;;;;5422664;26;20726;-72
2024/04/16 03:22:35;;;;;;;7.67;1.83;;;5.00;99.90;;;;;;5422964;26;20225;-70
2024/04/16 03:25:04;;;;;;;5.47;1.30;;;5.10;99.90;;;;;;5422934;26;20218;-71
2024/04/16 03:27:33;;;;;;;3.97;1.73;;;5.10;99.90;;;;;;5422939;26;20256;-70
2024/04/16 03:29:59;;;;;;;5.90;1.70;;;5.10;99.90;;;;;;5423272;26;20281;-70
2024/04/16 03:32:28;;;;;;;8.87;2.40;;;5.10;99.90;;;;;;5423193;26;20323;-70
2024/04/16 03:34:54;;;;;;;6.23;3.13;;;5.10;99.90;;;;;;5423749;26;20229;-70
2024/04/16 03:37:24;;;;;;;4.20;1.70;;;5.10;99.90;;;;;;5423137;26;20229;-70
2024/04/16 03:39:53;;;;;;;3.50;1.60;;;5.10;99.90;;;;;;5423576;26;20233;-68
2024/04/16 03:42:24;;;;;;;8.30;1.83;;;5.20;99.90;;;;;;5423116;26;20690;-69
2024/04/16 03:44:52;;;;;;;8.27;2.30;;;5.20;99.90;;;;;;5422324;26;20209;-69
2024/04/16 03:47:21;;;;;;;5.10;1.70;;;5.20;99.90;;;;;;5422676;26;20255;-70
2024/04/16 03:49:47;;;;;;;5.30;2.23;;;5.20;99.90;;;;;;5422462;26;20237;-69
2024/04/16 03:52:15;;;;;;;5.87;1.67;;;5.20;99.90;;;;;;5422408;26;20229;-69
2024/04/16 03:54:44;;;;;;;5.60;1.83;;;5.20;99.90;;;;;;5422619;26;20229;-70
2024/04/16 03:57:10;;;;;;;4.10;1.80;;;5.20;99.90;;;;;;5445036;21;20273;-66
2024/04/16 04:00:59;;;;;;;6.73;2.20;;;5.10;99.90;;;;;;5419764;26;20237;-67
2024/04/16 04:02:28;;;;;;;5.83;2.03;;;5.10;99.90;;;;;;5419584;26;20222;-67
2024/04/16 04:04:56;;;;;;;7.17;1.83;;;5.10;99.90;;;;;;5419443;26;20299;-66
2024/04/16 04:07:22;;;;;;;4.93;2.50;;;5.00;99.90;;;;;;5419572;26;20240;-65
2024/04/16 04:09:51;;;;;;;4.57;2.43;;;4.90;99.90;;;;;;5419575;26;20376;-67
2024/04/16 04:12:17;;;;;;;6.70;2.00;;;4.90;99.90;;;;;;5419566;26;20251;-67
2024/04/16 04:14:48;;;;;;;3.10;2.03;;;4.80;99.90;;;;;;5419700;26;20342;-67
2024/04/16 04:17:14;;;;;;;7.33;2.03;;;4.80;99.90;;;;;;5420054;26;20653;-67
2024/04/16 04:19:42;;;;;;;5.43;2.07;;;4.80;99.90;;;;;;5419576;26;20263;-66
2024/04/16 04:22:08;;;;;;;2.90;1.53;;;4.80;98.60;;;;;;5419648;26;20627;-67
2024/04/16 04:24:37;;;;;;;5.30;1.50;;;4.90;53.00;;;;;;5420139;26;20233;-66
2024/04/16 04:27:03;;;;;;;3.40;1.30;;;5.00;1.00;;;;;;5419549;26;20264;-67
2024/04/16 04:29:33;;;;;;;3.30;1.70;;;5.00;6.80;;;;;;5419684;26;20815;-66
2024/04/16 04:32:01;;;;;;;5.93;1.70;;;4.90;29.70;;;;;;5419996;26;20259;-67
2024/04/16 04:34:31;;;;;;;6.60;2.50;;;4.80;58.00;;;;;;5419645;26;20256;-66
2024/04/16 04:36:57;;;;;;;5.97;1.90;;;4.80;28.40;;;;;;5419430;26;20263;-66
2024/04/16 04:39:25;;;;;;;5.03;1.57;;;4.80;45.60;;;;;;5419485;26;20573;-66
2024/04/16 04:41:52;;;;;;;3.97;1.83;;;4.70;84.50;;;;;;5419246;26;20256;-66
2024/04/16 04:44:20;;;;;;;3.87;2.10;;;4.60;92.40;;;;;;5419114;26;20241;-66
2024/04/16 04:46:46;;;;;;;7.70;2.07;;;4.60;99.60;;;;;;5419239;26;20241;-66
2024/04/16 04:49:17;;;;;;;5.00;2.00;;;4.50;99.90;;;;;;5419347;26;20605;-66
2024/04/16 04:51:44;;;;;;;6.63;2.00;;;4.50;99.90;;;;;;5419088;26;20720;-67
2024/04/16 04:54:12;;;;;;;6.00;2.03;;;4.50;99.90;;;;;;5418961;26;20235;-67
2024/04/16 04:56:38;;;;;;;5.87;2.33;;;4.60;99.90;;;;;;5419014;26;20591;-66
2024/04/16 04:59:07;;;;;;;4.07;2.17;;;4.70;99.90;;;;;;5419190;26;20228;-66
2024/04/16 05:01:33;;;;;;;4.87;1.90;;;4.70;99.90;;;;;;5419250;26;20241;-67
2024/04/16 05:04:02;;;;;;;7.43;2.50;;;4.80;99.90;;;;;;5418390;26;20325;-67
2024/04/16 05:06:30;;;;;;;8.87;2.43;;;4.90;99.90;;;;;;5418997;26;20741;-66
2024/04/16 05:08:59;;;;;;;5.87;2.60;;;5.00;99.90;;;;;;5418900;26;20229;-66
2024/04/16 05:11:25;;;;;;;8.67;2.33;;;5.00;99.90;;;;;;5418909;26;20260;-66
2024/04/16 05:13:53;;;;;;;7.93;2.53;;;5.00;99.90;;;;;;5418890;26;20218;-66
2024/04/16 05:16:23;;;;;;;6.23;2.40;;;5.00;99.90;;;;;;5419069;26;20237;-66
2024/04/16 05:18:52;;;;;;;11.63;3.70;;;5.10;99.90;;;;;;5419399;26;20221;-66
2024/04/16 05:21:18;;;;;;;6.30;2.53;;;5.10;99.90;;;;;;5418934;26;20256;-66
2024/04/16 05:23:50;;;;;;;8.87;2.17;;;5.20;99.90;;;;;;5418745;26;20213;-66
2024/04/16 05:26:16;;;;;;;6.10;2.10;;;5.20;99.90;;;;;;5418544;26;20658;-67
2024/04/16 05:28:44;;;;;;;12.03;2.30;;;5.20;99.90;;;;;;5418748;26;20221;-68
2024/04/16 05:31:13;;;;;;;6.67;2.20;;;5.30;99.90;;;;;;5418543;26;20327;-68
2024/04/16 05:33:39;;;;;;;8.03;2.63;;;5.30;92.60;;;;;;5418708;26;20221;-68
2024/04/16 05:36:08;;;;;;;5.40;2.10;;;5.30;97.00;;;;;;5419042;26;20703;-68
2024/04/16 05:38:34;;;;;;;4.10;1.57;;;5.40;99.90;;;;;;5418441;26;20217;-68
2024/04/16 05:41:06;;;;;;;7.10;2.27;;;5.50;90.00;;;;;;5418695;26;20225;-67
2024/04/16 05:43:32;;;;;;;7.97;2.63;;;5.50;67.90;;;;;;5418746;26;20213;-67
2024/04/16 05:46:01;;;;;;;5.23;2.40;;;5.60;72.30;;;;;;5418880;26;20593;-67
2024/04/16 05:48:27;;;;;;;11.13;2.53;;;5.60;32.20;;;;;;5418447;26;20748;-67
2024/04/16 05:50:55;;;;;;;3.93;1.57;;;5.60;26.30;;;;;;5418300;26;20225;-67
2024/04/16 05:53:21;;;;;;;6.27;2.27;;;5.70;5.10;;;;;;5418593;26;20222;-67
2024/04/16 05:55:50;;;;;;;8.40;1.80;;;5.70;1.00;;;;;;5417838;26;20638;-67
2024/04/16 05:58:20;;;;;;;6.70;2.50;;;5.70;2.60;;;;;;5418171;26;20637;-67
2024/04/16 06:00:48;;;;;;;6.60;1.80;;;5.80;1.00;;;;;;5418241;26;20323;-65
2024/04/16 06:03:14;;;;;;;15.23;2.00;;;5.90;1.00;;;;;;5417962;26;20221;-64
2024/04/16 06:05:43;;;;;;;6.23;1.97;;;5.90;1.00;;;;;;5417973;26;20256;-64
2024/04/16 06:08:09;;;;;;;10.60;2.80;;;5.90;1.00;;;;;;5417991;26;20264;-65
2024/04/16 06:10:38;;;;;;;6.87;2.13;;;5.90;1.00;;;;;;5418225;26;20299;-64
2024/04/16 06:13:04;;;;;;;7.33;2.20;;;5.90;1.00;;;;;;5417907;26;20706;-66
2024/04/16 06:15:35;;;;;;;8.17;2.17;;;5.90;1.00;;;;;;5416375;26;20264;-65
2024/04/16 06:18:01;;;;;;;7.53;2.70;;;5.90;1.00;;;;;;5417931;26;20264;-65
2024/04/16 06:20:30;;;;;;;5.40;2.70;;;6.00;1.00;;;;;;5418197;26;20326;-65
2024/04/16 06:22:56;;;;;;;6.90;2.07;;;6.00;1.00;;;;;;5417754;26;20582;-64
2024/04/16 06:25:24;;;;;;;4.13;2.00;;;6.00;1.00;;;;;;5417618;26;20222;-65
2024/04/16 06:27:51;;;;;;;6.33;2.20;;;6.00;1.00;;;;;;5417739;26;20233;-64
2024/04/16 06:30:20;;;;;;;9.33;2.00;;;6.10;1.00;;;;;;5417552;26;20276;-63
2024/04/16 06:32:48;;;;;;;4.57;1.53;;;6.10;1.00;;;;;;5417599;26;20229;-62
2024/04/16 06:35:17;;;;;;;9.73;1.97;;;6.10;1.00;;;;;;5417659;26;20653;-64
2024/04/16 06:37:43;;;;;;;9.23;2.13;;;6.20;1.00;;;;;;5417375;26;20585;-62
2024/04/16 06:40:12;;;;;;;5.27;2.40;;;6.10;1.00;;;;;;5417882;26;20259;-64
2024/04/16 06:42:38;;;;;;;12.13;2.00;;;6.20;1.00;;;;;;5417472;26;20264;-64
2024/04/16 06:45:07;;;;;;;9.23;2.30;;;6.20;1.00;;;;;;5417362;26;20221;-64
2024/04/16 06:47:33;;;;;;;5.03;1.60;;;6.20;1.00;;;;;;5417179;26;20737;-64
2024/04/16 06:50:05;;;;;;;4.00;1.47;;;6.20;1.00;;;;;;5417511;26;20805;-66
2024/04/16 06:52:31;;;;;;;6.70;2.20;;;6.30;1.00;;;;;;5417407;26;20182;-66
2024/04/16 06:54:59;;;;;;;9.57;2.10;;;6.30;1.00;;;;;;5417094;26;20283;-67
2024/04/16 06:57:25;;;;;;;7.20;2.77;;;6.50;1.00;;;;;;5417204;26;20748;-67
2024/04/16 06:59:54;;;;;;;10.33;1.80;;;6.40;1.00;;;;;;5416969;26;20632;-67
2024/04/16 07:02:20;;;;;;;7.83;2.17;;;6.50;1.00;;;;;;5417319;26;20259;-65
2024/04/16 07:04:48;;;;;;;9.80;2.00;;;6.60;1.00;;;;;;5416893;26;20687;-67
2024/04/16 07:07:17;;;;;;;3.73;1.70;;;6.60;1.00;;;;;;5416941;26;20229;-65
2024/04/16 07:09:45;;;;;;;5.77;1.67;;;6.40;1.00;;;;;;5416984;26;20351;-65
2024/04/16 07:12:11;;;;;;;4.33;1.40;;;6.50;2.70;;;;;;5417261;26;20322;-65
2024/04/16 07:14:40;;;;;;;4.23;1.83;;;6.60;1.00;;;;;;5416978;26;20221;-65
2024/04/16 07:17:06;;;;;;;3.97;1.33;;;6.70;1.00;;;;;;5417021;26;20230;-65
2024/04/16 07:19:34;;;;;;;5.83;1.53;;;6.90;1.00;;;;;;5417021;26;20745;-65
2024/04/16 07:22:00;;;;;;;4.93;2.40;;;7.10;1.00;;;;;;5416806;26;20221;-64
2024/04/16 07:24:31;;;;;;;7.00;1.57;;;7.30;1.00;;;;;;5416832;26;20264;-65
2024/04/16 07:26:57;;;;;;;7.87;2.73;;;7.30;1.00;;;;;;5419123;26;20261;-65
2024/04/16 07:29:26;;;;;;;4.77;1.70;;;7.40;1.00;;;;;;5420285;26;20221;-66
2024/04/16 07:31:52;;;;;;;6.73;1.53;;;7.40;1.00;;;;;;5420392;26;20373;-66
2024/04/16 07:34:20;;;;;;;2.70;1.40;;;7.40;1.00;;;;;;5420313;26;20259;-66
2024/04/16 07:36:46;;;;;;;14.83;2.10;;;7.50;99.90;;;;;;5419932;26;20249;-66
2024/04/16 07:39:15;;;;;;;4.30;1.57;;;7.60;1.00;;;;;;5420408;26;20229;-67
2024/04/16 07:41:44;;;;;;;6.27;1.40;;;7.60;1.00;;;;;;5420104;26;20221;-64
2024/04/16 07:44:13;;;;;;;2.97;1.20;;;7.70;1.00;;;;;;5419972;26;20237;-64
2024/04/16 07:46:39;;;;;;;3.47;1.43;;;7.70;1.00;;;;;;5419833;26;20233;-64
2024/04/16 07:49:07;;;;;;;4.67;1.10;;;7.80;99.90;;;;;;5419848;26;20268;-64
2024/04/16 07:51:33;;;;;;;4.37;1.77;;;7.60;1.00;;;;;;5419999;26;20260;-64
2024/04/16 07:54:02;;;;;;;3.37;1.40;;;7.60;1.00;;;;;;5420127;26;20221;-64
2024/04/16 07:56:28;;;;;;;2.93;1.37;;;8.00;1.00;;;;;;5419656;26;20234;-64
2024/04/16 07:58:59;;;;;;;4.73;0.93;;;8.20;99.90;;;;;;5419753;26;20631;-65
2024/04/16 08:01:25;;;;;;;4.87;1.50;;;8.10;1.00;;;;;;5419896;26;20256;-64
2024/04/16 08:03:53;;;;;;;4.87;1.17;;;8.10;1.00;;;;;;5419974;26;20226;-64
2024/04/16 08:06:19;;;;;;;3.73;1.07;;;8.10;1.00;;;;;;5419623;26;20238;-64
2024/04/16 08:08:49;;;;;;;3.63;1.10;;;8.10;99.90;;;;;;5419692;26;20394;-64
2024/04/16 08:11:15;;;;;;;2.90;1.07;;;8.20;99.90;;;;;;5419858;26;20754;-63
2024/04/16 08:13:44;;;;;;;1.83;1.00;;;8.30;99.90;;;;;;5419906;26;20806;-63
2024/04/16 08:16:12;;;;;;;2.80;1.10;;;8.10;1.00;;;;;;5419927;26;20614;-64
2024/04/16 08:18:41;;;;;;;2.47;1.20;;;8.10;99.90;;;;;;5419602;26;20269;-64
2024/04/16 08:21:07;;;;;;;2.40;1.40;;;8.10;99.90;;;;;;5419498;26;20263;-65
2024/04/16 08:23:35;;;;;;;3.57;1.27;;;8.10;99.90;;;;;;5419527;26;20233;-66
2024/04/16 08:26:02;;;;;;;5.57;1.20;;;8.30;99.90;;;;;;5419586;26;20229;-66
2024/04/16 08:28:31;;;;;;;3.70;0.90;;;8.30;99.90;;;;;;5419711;26;20322;-65
2024/04/16 08:30:58;;;;;;;8.30;2.33;;;8.20;99.90;;;;;;5419423;26;20264;-64
2024/04/16 08:33:29;;;;;;;5.47;1.47;;;8.20;99.90;;;;;;5419529;26;20772;-65
2024/04/16 08:35:56;;;;;;;2.40;0.97;;;8.20;99.90;;;;;;5419439;26;20230;-66
2024/04/16 08:38:25;;;;;;;2.50;0.60;;;8.20;99.90;;;;;;5418142;26;20256;-66
2024/04/16 08:40:56;;;;;;;5.07;0.90;;;8.20;99.90;;;;;;5419255;26;20277;-66
2024/04/16 08:43:27;;;;;;;4.33;1.20;;;8.10;99.90;;;;;;5419328;26;20269;-65
2024/04/16 08:45:55;;;;;;;4.67;1.13;;;8.10;99.90;;;;;;5419464;26;20260;-65
2024/04/16 08:48:24;;;;;;;3.90;1.43;;;8.00;99.90;;;;;;5419350;26;20225;-65
2024/04/16 08:50:53;;;;;;;4.43;0.73;;;7.90;99.90;;;;;;5419469;26;20271;-65
2024/04/16 08:53:23;;;;;;;3.10;1.37;;;7.80;99.90;;;;;;5419090;26;20291;-65
2024/04/16 08:55:48;;;;;;;2.20;1.27;;;7.90;99.90;;;;;;5419113;26;20241;-65
2024/04/16 08:58:17;;;;;;;1.63;1.17;;;7.90;99.90;;;;;;5419406;26;20322;-63
2024/04/16 09:00:44;;;;;;;6.00;1.00;;;7.90;99.90;;;;;;5419330;26;20221;-64
2024/04/16 09:03:13;;;;;;;3.20;1.03;;;7.80;99.90;;;;;;5419098;26;20590;-65
2024/04/16 09:05:39;;;;;;;4.93;0.90;;;7.80;99.90;;;;;;5418921;26;20218;-66
2024/04/16 09:08:10;;;;;;;2.50;1.00;;;8.00;99.90;;;;;;5418903;26;20811;-65
2024/04/16 09:10:36;;;;;;;2.63;1.40;;;8.00;99.90;;;;;;5418955;26;20577;-64
2024/04/16 09:13:12;;;;;;;2.37;0.97;;;8.00;80.10;;;;;;5418874;26;20259;-64
2024/04/16 09:15:39;;;;;;;5.57;1.27;;;8.10;12.80;;;;;;5418726;26;20213;-64
2024/04/16 09:18:36;;;;;;;2.20;0.90;;;8.10;99.90;;;;;;5418914;26;20632;-64
2024/04/16 09:21:01;;;;;;;3.80;1.00;;;8.20;99.90;;;;;;5418989;26;20382;-64
2024/04/16 09:23:35;;;;;;;3.03;1.00;;;8.20;72.00;;;;;;5418748;26;20271;-64
2024/04/16 09:26:01;;;;;;;4.97;1.13;;;8.30;99.90;;;;;;5419100;26;20229;-64
2024/04/16 09:28:29;;;;;;;0.93;0.73;;;8.30;82.60;;;;;;5418681;26;20222;-65
2024/04/16 09:30:55;;;;;;;3.60;1.20;;;8.30;99.90;;;;;;5418764;26;20218;-65
2024/04/16 09:33:24;;;;;;;1.23;0.77;;;8.30;99.90;;;;;;5418663;26;20354;-65
2024/04/16 09:35:50;;;;;;;5.57;1.47;;;8.40;99.90;;;;;;5418543;26;20229;-65
2024/04/16 09:38:19;;;;;;;2.50;0.87;;;8.50;99.90;;;;;;5418778;26;20268;-65
2024/04/16 09:40:49;;;;;;;12.43;1.40;;;8.50;99.90;;;;;;5418711;26;20318;-65
2024/04/16 09:43:20;;;;;;;3.13;1.17;;;8.50;99.90;;;;;;5418727;26;20217;-65
2024/04/16 09:45:49;;;;;;;2.23;0.73;;;8.70;99.90;;;;;;5418593;26;20225;-65
2024/04/16 09:48:20;;;;;;;2.50;0.93;;;8.80;99.90;;;;;;5418443;26;20260;-65
2024/04/16 09:50:48;;;;;;;4.30;1.00;;;8.90;99.90;;;;;;5418634;26;20383;-64
2024/04/16 09:53:20;;;;;;;3.50;1.17;;;8.90;99.90;;;;;;5418342;26;20795;-65
2024/04/16 09:55:50;;;;;;;7.37;1.00;;;8.90;99.90;;;;;;5418347;26;20241;-64
2024/04/16 09:58:20;;;;;;;1.43;0.80;;;9.00;99.90;;;;;;5442955;21;20295;-67
2024/04/16 10:00:47;;;;;;;4.97;1.23;;;8.90;99.90;;;;;;5418175;26;20632;-67
2024/04/16 10:03:16;;;;;;;3.27;0.90;;;8.80;99.90;;;;;;5418256;26;20251;-67
2024/04/16 10:05:42;;;;;;;4.30;1.03;;;8.70;16.90;;;;;;5417892;26;20229;-67
2024/04/16 10:08:11;;;;;;;2.10;0.80;;;8.60;99.90;;;;;;5417952;26;20245;-68
2024/04/16 10:10:37;;;;;;;1.97;0.60;;;8.60;99.90;;;;;;5418086;26;20218;-67
2024/04/16 10:13:10;;;;;;;4.23;0.87;;;8.50;99.90;;;;;;5417988;26;20743;-67
2024/04/16 10:15:35;;;;;;;2.40;1.00;;;8.50;99.90;;;;;;5417894;26;20210;-67
2024/04/16 10:18:04;;;;;;;1.10;0.70;;;8.40;99.90;;;;;;5418147;26;20807;-67
2024/04/16 10:20:31;;;;;;;3.43;1.00;;;8.50;1.00;;;;;;5417873;26;20222;-68
2024/04/16 10:23:00;;;;;;;0.60;0.50;;;8.50;1.00;;;;;;5417995;26;20226;-68
2024/04/16 10:25:27;;;;;;;3.00;0.90;;;8.40;1.00;;;;;;5418054;26;20225;-68
2024/04/16 10:27:56;;;;;;;1.90;0.60;;;8.30;99.90;;;;;;5417682;26;20221;-68
2024/04/16 10:30:28;;;;;;;3.50;0.60;;;8.20;1.00;;;;;;5417880;26;20588;-68
2024/04/16 10:32:58;;;;;;;2.50;0.50;;;7.90;99.90;;;;;;5417695;26;20327;-68
2024/04/16 10:35:26;;;;;;;4.30;0.70;;;7.70;99.90;;;;;;5418143;26;20194;-68
2024/04/16 10:37:54;;;;;;;2.17;0.53;;;7.60;1.00;;;;;;5417508;26;20218;-68
2024/04/16 10:40:26;;;;;;;0.83;0.50;;;7.60;24.00;;;;;;5417546;26;20252;-68
2024/04/16 10:42:55;;;;;;;0.80;0.60;;;7.60;99.90;;;;;;5417518;26;20233;-68
2024/04/16 10:45:24;;;;;;;0.83;0.70;;;7.80;99.90;;;;;;5417501;26;20272;-68
2024/04/16 10:47:54;;;;;;;1.40;0.53;;;7.80;1.00;;;;;;5417545;26;20229;-69
2024/04/16 10:50:20;;;;;;;1.20;0.60;;;7.90;99.90;;;;;;5417624;26;20264;-68
2024/04/16 10:52:49;;;;;;;1.43;0.60;;;7.80;1.00;;;;;;5417326;26;20229;-68
2024/04/16 10:55:15;;;;;;;3.00;0.70;;;7.80;99.90;;;;;;5417156;26;20217;-68
2024/04/16 10:57:44;;;;;;;2.17;0.77;;;7.70;99.90;;;;;;5417135;26;20264;-68
2024/04/16 11:00:11;;;;;;;1.97;0.73;;;7.70;99.90;;;;;;5417769;26;20314;-68
2024/04/16 11:02:42;;;;;;;1.17;0.70;;;7.70;99.90;;;;;;5420300;26;20702;-68
2024/04/16 11:05:08;;;;;;;0.53;0.53;;;7.70;99.90;;;;;;5420898;26;20217;-67
2024/04/16 11:07:37;;;;;;;1.97;0.60;;;7.80;99.90;;;;;;5420600;26;20265;-68
2024/04/16 11:10:04;;;;;;;1.07;0.57;;;7.90;1.00;;;;;;5420628;26;20609;-67
2024/04/16 11:12:33;;;;;;;1.73;0.67;;;7.90;99.90;;;;;;5420960;26;20259;-68
2024/04/16 11:15:01;;;;;;;3.50;0.80;;;8.00;1.00;;;;;;5420727;26;20221;-69
2024/04/16 11:17:28;;;;;;;3.97;1.10;;;8.10;1.00;;;;;;5421416;26;20256;-69
2024/04/16 11:19:59;;;;;;;2.40;1.17;;;8.10;99.90;;;;;;5420474;26;20268;-69
2024/04/16 11:22:25;;;;;;;1.57;0.90;;;8.30;55.40;;;;;;5420854;26;20222;-68
2024/04/16 11:24:54;;;;;;;1.80;0.80;;;8.20;99.90;;;;;;5420804;26;20280;-68
2024/04/16 11:27:20;;;;;;;1.77;1.00;;;8.20;99.90;;;;;;5420242;26;20264;-68
2024/04/16 11:29:49;;;;;;;1.73;0.90;;;8.20;1.00;;;;;;5420136;26;20245;-68
2024/04/16 11:32:15;;;;;;;1.70;0.97;;;8.20;99.90;;;;;;5420298;26;20756;-68
2024/04/16 11:34:45;;;;;;;1.00;0.77;;;8.20;99.90;;;;;;5420215;26;20229;-68
2024/04/16 11:37:14;;;;;;;1.00;0.90;;;8.10;99.90;;;;;;5420349;26;20225;-68
2024/04/16 11:39:43;;;;;;;1.87;0.90;;;8.10;1.00;;;;;;5420602;26;20248;-68
2024/04/16 11:42:11;;;;;;;3.20;0.70;;;8.00;1.00;;;;;;5419996;26;20260;-68
2024/04/16 11:44:40;;;;;;;1.10;0.63;;;8.10;1.00;;;;;;5419860;26;20226;-68
2024/04/16 11:47:08;;;;;;;0.90;0.60;;;8.00;1.00;;;;;;5420077;26;20256;-68
2024/04/16 11:49:36;;;;;;;1.63;0.70;;;7.80;1.00;;;;;;5419682;26;20719;-68
2024/04/16 11:52:03;;;;;;;2.37;0.90;;;7.80;1.00;;;;;;5419632;26;20222;-69
2024/04/16 11:54:36;;;;;;;2.87;0.60;;;7.90;99.90;;;;;;5419711;26;20596;-69
2024/04/16 11:57:03;;;;;;;1.17;0.80;;;7.90;1.00;;;;;;5420371;26;20214;-70
2024/04/16 11:59:29;;;;;;;0.93;0.60;;;8.00;99.90;;;;;;5419680;26;20277;-69
2024/04/16 12:01:57;;;;;;;1.43;0.70;;;8.10;1.00;;;;;;5419785;26;20221;-69
2024/04/16 12:04:23;;;;;;;1.87;0.60;;;8.10;99.90;;;;;;5419722;26;20229;-70
2024/04/16 12:06:52;;;;;;;2.17;0.90;;;8.20;99.90;;;;;;5419649;26;20260;-69
2024/04/16 12:09:18;;;;;;;1.33;0.97;;;8.30;85.80;;;;;;5419456;26;20264;-70
2024/04/16 12:11:49;;;;;;;1.37;0.60;;;8.30;1.00;;;;;;5419265;26;20655;-69
2024/04/16 12:14:15;;;;;;;0.70;0.70;;;8.30;1.00;;;;;;5418041;26;20253;-70
2024/04/16 12:16:43;;;;;;;3.50;0.70;;;8.50;1.00;;;;;;5418775;26;20229;-69
2024/04/16 12:19:10;;;;;;;1.27;0.73;;;8.80;99.90;;;;;;5419191;26;20241;-70
2024/04/16 12:21:41;;;;;;;1.50;0.60;;;8.90;76.00;;;;;;5419627;26;20226;-70
2024/04/16 12:24:09;;;;;;;1.77;0.53;;;9.20;1.00;;;;;;5419578;26;20222;-69
2024/04/16 12:26:38;;;;;;;0.80;0.47;;;10.00;69.80;;;;;;5419055;26;20218;-69
2024/04/16 12:29:08;;;;;;;2.90;0.50;;;10.30;1.00;;;;;;5419267;26;20263;-70
2024/04/16 12:31:37;;;;;;;6.47;0.70;;;11.30;99.90;;;;;;5419388;26;20213;-70
2024/04/16 12:34:04;;;;;;;0.87;0.70;;;10.60;99.90;;;;;;5418942;26;20221;-70
2024/04/16 12:36:33;;;;;;;1.73;0.50;;;10.10;99.90;;;;;;5419378;26;20222;-70
2024/04/16 12:39:01;;;;;;;3.50;0.77;;;9.80;99.90;;;;;;5419111;26;20246;-69
2024/04/16 12:41:34;;;;;;;0.30;0.30;;;9.90;1.00;;;;;;5418935;26;20284;-69
2024/04/16 12:44:01;;;;;;;0.50;0.50;;;9.90;99.90;;;;;;5419218;26;20208;-69
2024/04/16 12:46:34;;;;;;;2.90;0.80;;;9.70;1.00;;;;;;5418507;26;20225;-69
2024/04/16 12:49:01;;;;;;;2.93;0.50;;;9.40;1.00;;;;;;5418895;26;20245;-70
2024/04/16 12:51:30;;;;;;;2.37;0.67;;;9.30;99.90;;;;;;5419138;26;20623;-70
2024/04/16 12:53:57;;;;;;;4.47;0.90;;;9.10;40.90;;;;;;5419006;26;20263;-70
2024/04/16 12:56:27;;;;;;;0.90;0.70;;;8.90;1.00;;;;;;5419109;26;20330;-70
2024/04/16 12:58:54;;;;;;;3.63;1.00;;;9.00;99.90;;;;;;5419276;26;20241;-70
2024/04/16 13:01:23;;;;;;;1.77;0.90;;;9.00;1.00;;;;;;5427493;26;20221;-70
2024/04/16 13:03:51;;;;;;;1.00;0.87;;;9.00;1.00;;;;;;5418852;26;20221;-70